createdAt,value
2022-12-18T00:00:18.254Z,272.73
2022-12-18T00:00:51.106Z,279.52
2022-12-18T00:01:25.156Z,269.50
2022-12-18T00:02:00.988Z,253.73
2022-12-18T00:02:33.852Z,263.42
2022-12-18T00:03:06.781Z,276.92
2022-12-18T00:03:40.109Z,263.55
2022-12-18T00:04:23.405Z,271.13
2022-12-18T00:04:56.657Z,276.92
2022-12-18T00:05:31.530Z,269.00
2022-12-18T00:06:03.982Z,263.25
2022-12-18T00:06:36.479Z,259.77
2022-12-18T00:07:08.990Z,264.95
2022-12-18T00:07:41.470Z,274.48
2022-12-18T00:08:13.754Z,265.38
2022-12-18T00:08:46.361Z,268.90
2022-12-18T00:09:18.779Z,267.08
2022-12-18T00:09:51.298Z,265.23
2022-12-18T00:10:23.576Z,262.60
2022-12-18T00:10:59.579Z,255.48
2022-12-18T00:11:33.220Z,264.17
2022-12-18T00:12:48.277Z,269.58
2022-12-18T00:13:20.546Z,264.13
2022-12-18T00:13:54.268Z,248.27
2022-12-18T00:14:26.715Z,244.30
2022-12-18T00:14:59.068Z,257.50
2022-12-18T00:15:31.280Z,264.35
2022-12-18T00:16:07.889Z,259.83
2022-12-18T00:16:40.701Z,253.40
2022-12-18T00:17:12.986Z,274.33
2022-12-18T00:17:45.290Z,276.08
2022-12-18T00:18:20.572Z,269.02
2022-12-18T00:18:54.383Z,275.10
2022-12-18T00:19:26.704Z,274.20
2022-12-18T00:19:59.038Z,267.27
2022-12-18T00:20:31.660Z,266.50
2022-12-18T00:21:05.675Z,249.70
2022-12-18T00:21:37.986Z,268.13
2022-12-18T00:22:10.263Z,268.50
2022-12-18T00:22:42.574Z,262.20
2022-12-18T00:23:14.789Z,262.85
2022-12-18T00:23:47.555Z,271.73
2022-12-18T00:24:20.033Z,246.48
2022-12-18T00:24:53.061Z,270.40
2022-12-18T00:25:25.408Z,267.70
2022-12-18T00:26:04.615Z,264.30
2022-12-18T00:26:37.610Z,269.35
2022-12-18T00:27:10.781Z,264.23
2022-12-18T00:27:43.003Z,261.95
2022-12-18T00:28:15.404Z,252.98
2022-12-18T00:28:47.828Z,262.15
2022-12-18T00:29:20.185Z,258.08
2022-12-18T00:29:52.588Z,270.35
2022-12-18T00:30:24.873Z,270.67
2022-12-18T00:31:01.400Z,267.92
2022-12-18T00:31:34.234Z,266.23
2022-12-18T00:32:06.969Z,259.98
2022-12-18T00:32:39.364Z,259.38
2022-12-18T00:33:11.660Z,272.00
2022-12-18T00:33:44.170Z,252.43
2022-12-18T00:34:16.594Z,265.30
2022-12-18T00:34:48.894Z,268.42
2022-12-18T00:35:21.746Z,272.83
2022-12-18T00:35:54.254Z,262.25
2022-12-18T00:36:28.094Z,248.05
2022-12-18T00:37:00.474Z,255.32
2022-12-18T00:37:34.230Z,264.30
2022-12-18T00:38:07.466Z,249.63
2022-12-18T00:38:39.903Z,263.90
2022-12-18T00:39:13.396Z,259.08
2022-12-18T00:39:45.895Z,250.23
2022-12-18T00:40:18.210Z,261.95
2022-12-18T00:40:50.867Z,274.70
2022-12-18T00:41:42.408Z,264.10
2022-12-18T00:42:33.034Z,312.60
2022-12-18T00:43:05.396Z,284.33
2022-12-18T00:43:39.468Z,276.08
2022-12-18T00:44:13.250Z,295.60
2022-12-18T00:44:45.616Z,303.45
2022-12-18T00:45:19.115Z,298.35
2022-12-18T00:45:52.509Z,303.33
2022-12-18T00:46:24.838Z,287.40
2022-12-18T00:46:57.298Z,302.30
2022-12-18T00:47:29.766Z,296.20
2022-12-18T00:48:02.275Z,295.75
2022-12-18T00:48:34.533Z,301.88
2022-12-18T00:49:07.121Z,289.00
2022-12-18T00:49:39.463Z,285.05
2022-12-18T00:50:11.915Z,289.98
2022-12-18T00:50:44.213Z,282.10
2022-12-18T00:51:16.546Z,287.35
2022-12-18T00:51:48.999Z,287.50
2022-12-18T00:52:21.540Z,271.10
2022-12-18T00:52:54.113Z,298.70
2022-12-18T00:53:26.434Z,296.38
2022-12-18T00:53:58.948Z,299.38
2022-12-18T00:54:31.674Z,297.45
2022-12-18T00:55:06.407Z,274.75
2022-12-18T00:55:40.454Z,281.42
2022-12-18T00:56:13.259Z,279.85
2022-12-18T00:56:49.222Z,301.70
2022-12-18T00:57:21.971Z,277.85
2022-12-18T00:57:54.354Z,278.58
2022-12-18T00:58:26.754Z,288.35
2022-12-18T00:58:59.048Z,288.65
2022-12-18T00:59:31.530Z,279.42
2022-12-18T01:00:04.874Z,294.55
2022-12-18T01:00:37.216Z,297.70
2022-12-18T01:01:10.033Z,296.67
2022-12-18T01:01:42.597Z,301.35
2022-12-18T01:02:15.245Z,291.38
2022-12-18T01:02:49.223Z,281.23
2022-12-18T01:03:21.658Z,285.58
2022-12-18T01:03:54.069Z,282.35
2022-12-18T01:04:33.370Z,288.33
2022-12-18T01:05:06.723Z,265.23
2022-12-18T01:05:41.413Z,292.77
2022-12-18T01:06:15.788Z,291.67
2022-12-18T01:06:48.151Z,287.42
2022-12-18T01:07:20.625Z,285.77
2022-12-18T01:07:53.117Z,304.00
2022-12-18T01:08:25.593Z,289.95
2022-12-18T01:08:58.347Z,281.75
2022-12-18T01:09:30.933Z,292.85
2022-12-18T01:10:03.262Z,279.70
2022-12-18T01:10:36.083Z,284.67
2022-12-18T01:11:13.749Z,285.70
2022-12-18T01:11:47.380Z,269.15
2022-12-18T01:12:19.944Z,278.77
2022-12-18T01:12:52.525Z,286.73
2022-12-18T01:13:24.977Z,290.85
2022-12-18T01:13:57.296Z,283.55
2022-12-18T01:14:29.896Z,294.25
2022-12-18T01:15:02.422Z,286.58
2022-12-18T01:15:34.841Z,273.27
2022-12-18T01:16:07.763Z,280.52
2022-12-18T01:16:41.301Z,276.75
2022-12-18T01:17:13.887Z,301.42
2022-12-18T01:17:46.276Z,282.45
2022-12-18T01:18:18.968Z,265.67
2022-12-18T01:18:55.123Z,268.92
2022-12-18T01:19:27.465Z,288.90
2022-12-18T01:20:00.660Z,293.40
2022-12-18T01:23:24.083Z,267.38
2022-12-18T01:23:57.105Z,279.33
2022-12-18T01:24:29.430Z,273.48
2022-12-18T01:25:01.887Z,275.10
2022-12-18T01:25:34.648Z,284.30
2022-12-18T01:26:07.947Z,270.83
2022-12-18T01:26:41.232Z,289.88
2022-12-18T01:27:13.724Z,304.40
2022-12-18T01:27:46.215Z,293.13
2022-12-18T01:28:18.656Z,286.50
2022-12-18T01:28:51.345Z,280.48
2022-12-18T01:29:24.113Z,293.27
2022-12-18T01:29:56.523Z,299.15
2022-12-18T01:30:28.872Z,283.52
2022-12-18T01:31:30.375Z,275.80
2022-12-18T01:32:02.901Z,261.20
2022-12-18T01:32:35.805Z,261.75
2022-12-18T01:33:08.182Z,270.33
2022-12-18T01:33:41.823Z,275.10
2022-12-18T01:34:14.475Z,279.88
2022-12-18T01:34:47.602Z,315.77
2022-12-18T01:35:19.813Z,287.38
2022-12-18T01:35:52.258Z,285.23
2022-12-18T01:36:25.800Z,295.45
2022-12-18T01:36:58.045Z,295.80
2022-12-18T01:37:30.417Z,290.98
2022-12-18T01:38:02.620Z,281.02
2022-12-18T01:38:34.892Z,285.30
2022-12-18T01:39:08.983Z,276.52
2022-12-18T01:39:41.391Z,295.17
2022-12-18T01:40:13.755Z,282.80
2022-12-18T01:40:46.071Z,278.25
2022-12-18T01:41:20.479Z,284.98
2022-12-18T01:42:04.689Z,270.13
2022-12-18T01:42:37.138Z,276.08
2022-12-18T01:43:10.355Z,292.10
2022-12-18T01:43:42.564Z,287.73
2022-12-18T01:44:33.337Z,280.88
2022-12-18T01:45:14.744Z,276.40
2022-12-18T01:45:48.870Z,258.60
2022-12-18T01:46:22.455Z,253.90
2022-12-18T01:46:54.787Z,260.80
2022-12-18T01:47:27.118Z,275.83
2022-12-18T01:48:09.884Z,267.88
2022-12-18T01:48:43.670Z,276.08
2022-12-18T01:49:15.975Z,256.50
2022-12-18T01:49:48.702Z,270.73
2022-12-18T01:50:23.155Z,270.45
2022-12-18T01:50:55.530Z,281.27
2022-12-18T01:51:31.105Z,268.90
2022-12-18T01:52:03.594Z,288.70
2022-12-18T01:52:36.819Z,284.17
2022-12-18T01:53:12.496Z,261.95
2022-12-18T01:53:45.834Z,282.55
2022-12-18T01:54:18.522Z,281.05
2022-12-18T01:54:51.451Z,276.63
2022-12-18T01:55:25.920Z,284.63
2022-12-18T01:55:58.931Z,284.90
2022-12-18T01:56:31.267Z,289.80
2022-12-18T01:57:03.718Z,273.00
2022-12-18T01:57:36.697Z,293.80
2022-12-18T01:58:09.290Z,273.67
2022-12-18T01:58:49.829Z,280.55
2022-12-18T01:59:22.472Z,279.65
2022-12-18T01:59:57.955Z,289.25
2022-12-18T02:00:30.568Z,275.77
2022-12-18T02:01:02.859Z,295.80
2022-12-18T02:01:39.111Z,283.80
2022-12-18T02:02:12.300Z,263.63
2022-12-18T02:02:45.952Z,268.20
2022-12-18T02:03:18.732Z,266.73
2022-12-18T02:03:52.630Z,299.10
2022-12-18T02:04:26.546Z,261.60
2022-12-18T02:04:59.502Z,266.67
2022-12-18T02:05:31.836Z,266.88
2022-12-18T02:06:05.326Z,273.73
2022-12-18T02:06:41.226Z,266.75
2022-12-18T02:07:14.097Z,257.55
2022-12-18T02:08:04.792Z,265.27
2022-12-18T02:08:41.549Z,234.55
2022-12-18T02:09:16.334Z,261.42
2022-12-18T02:09:51.713Z,262.88
2022-12-18T02:10:27.366Z,282.83
2022-12-18T02:11:14.908Z,272.05
2022-12-18T02:12:05.729Z,274.58
2022-12-18T02:12:44.538Z,273.20
2022-12-18T02:13:36.064Z,277.20
2022-12-18T02:14:17.634Z,269.52
2022-12-18T02:15:19.259Z,250.07
2022-12-18T02:15:54.524Z,281.70
2022-12-18T02:16:45.020Z,264.83
2022-12-18T02:17:19.071Z,269.20
2022-12-18T02:17:58.259Z,279.30
2022-12-18T02:18:33.623Z,261.42
2022-12-18T02:19:17.756Z,274.42
2022-12-18T02:20:09.245Z,261.13
2022-12-18T02:20:55.323Z,256.15
2022-12-18T02:21:39.590Z,268.13
2022-12-18T02:22:14.471Z,279.00
2022-12-18T02:23:05.153Z,273.45
2022-12-18T02:23:37.797Z,279.77
2022-12-18T02:24:30.590Z,253.75
2022-12-18T02:25:23.070Z,263.98
2022-12-18T02:25:55.252Z,262.05
2022-12-18T02:26:30.210Z,257.30
2022-12-18T02:27:10.211Z,263.30
2022-12-18T02:27:45.060Z,278.83
2022-12-18T02:28:20.108Z,276.05
2022-12-18T02:28:54.452Z,282.92
2022-12-18T02:29:39.446Z,286.98
2022-12-18T02:30:12.136Z,261.90
2022-12-18T02:30:47.243Z,262.77
2022-12-18T02:31:22.988Z,265.83
2022-12-18T02:31:57.585Z,259.20
2022-12-18T02:32:32.349Z,254.90
2022-12-18T02:33:06.186Z,264.95
2022-12-18T02:33:42.384Z,262.15
2022-12-18T02:34:16.111Z,275.83
2022-12-18T02:34:49.450Z,266.48
2022-12-18T02:35:25.187Z,262.27
2022-12-18T02:36:01.153Z,262.25
2022-12-18T02:36:34.706Z,257.35
2022-12-18T02:37:09.066Z,276.92
2022-12-18T02:37:42.679Z,269.65
2022-12-18T02:38:16.749Z,283.40
2022-12-18T02:38:52.472Z,278.35
2022-12-18T02:39:26.278Z,278.38
2022-12-18T02:40:05.118Z,279.98
2022-12-18T02:40:39.850Z,277.58
2022-12-18T02:41:12.881Z,277.08
2022-12-18T02:41:45.722Z,284.75
2022-12-18T02:42:19.994Z,286.90
2022-12-18T02:42:54.175Z,273.02
2022-12-18T02:43:26.600Z,265.15
2022-12-18T02:44:03.215Z,291.90
2022-12-18T02:44:48.021Z,273.20
2022-12-18T02:45:23.789Z,292.00
2022-12-18T02:45:59.933Z,277.00
2022-12-18T02:46:35.249Z,258.20
2022-12-18T02:47:16.482Z,274.25
2022-12-18T02:47:50.606Z,260.20
2022-12-18T02:48:31.861Z,276.42
2022-12-18T02:49:10.369Z,267.63
2022-12-18T02:49:49.394Z,261.08
2022-12-18T02:50:39.245Z,267.83
2022-12-18T02:51:19.602Z,250.00
2022-12-18T02:51:57.488Z,270.48
2022-12-18T02:52:36.616Z,271.20
2022-12-18T02:53:33.661Z,263.52
2022-12-18T02:54:11.658Z,255.75
2022-12-18T02:54:51.482Z,280.83
2022-12-18T02:55:39.220Z,257.30
2022-12-18T02:56:55.209Z,263.02
2022-12-18T02:57:33.931Z,254.77
2022-12-18T02:58:18.290Z,239.50
2022-12-18T02:58:53.851Z,240.82
2022-12-18T02:59:48.943Z,241.15
2022-12-18T03:00:36.749Z,230.50
2022-12-18T03:01:09.009Z,250.90
2022-12-18T03:01:51.250Z,261.88
2022-12-18T03:02:35.551Z,246.00
2022-12-18T03:03:12.399Z,248.32
2022-12-18T03:03:45.914Z,259.27
2022-12-18T03:04:38.533Z,259.10
2022-12-18T03:05:13.864Z,253.32
2022-12-18T03:06:10.842Z,253.55
2022-12-18T03:06:45.111Z,237.38
2022-12-18T03:07:21.222Z,253.57
2022-12-18T03:07:59.083Z,247.30
2022-12-18T03:08:39.085Z,251.40
2022-12-18T03:09:20.633Z,264.67
2022-12-18T03:09:55.149Z,232.10
2022-12-18T03:10:32.179Z,262.05
2022-12-18T03:11:06.168Z,269.27
2022-12-18T03:12:01.373Z,245.73
2022-12-18T03:12:36.658Z,268.17
2022-12-18T03:13:11.134Z,254.30
2022-12-18T03:13:43.781Z,259.50
2022-12-18T03:14:18.831Z,257.10
2022-12-18T03:15:04.811Z,262.63
2022-12-18T03:15:41.390Z,247.73
2022-12-18T03:16:26.003Z,247.60
2022-12-18T03:17:00.203Z,244.13
2022-12-18T03:17:34.117Z,245.13
2022-12-18T03:18:08.947Z,253.75
2022-12-18T03:18:47.576Z,246.98
2022-12-18T03:19:22.969Z,270.77
2022-12-18T03:19:59.641Z,266.90
2022-12-18T03:20:32.792Z,268.13
2022-12-18T03:21:06.400Z,267.08
2022-12-18T03:21:44.898Z,245.57
2022-12-18T03:22:17.382Z,269.05
2022-12-18T03:22:58.529Z,258.00
2022-12-18T03:23:33.492Z,256.90
2022-12-18T03:24:07.983Z,253.68
2022-12-18T03:24:41.049Z,264.45
2022-12-18T03:25:15.187Z,260.63
2022-12-18T03:25:49.393Z,248.20
2022-12-18T03:26:23.299Z,278.30
2022-12-18T03:27:01.509Z,253.95
2022-12-18T03:27:34.863Z,258.42
2022-12-18T03:28:13.300Z,259.88
2022-12-18T03:28:48.559Z,274.02
2022-12-18T03:29:20.891Z,267.27
2022-12-18T03:29:58.981Z,265.35
2022-12-18T03:30:34.559Z,257.88
2022-12-18T03:31:09.807Z,259.73
2022-12-18T03:31:45.873Z,250.52
2022-12-18T03:32:30.481Z,260.13
2022-12-18T03:33:09.009Z,257.35
2022-12-18T03:33:47.878Z,259.52
2022-12-18T03:34:26.013Z,249.32
2022-12-18T03:34:59.663Z,276.38
2022-12-18T03:35:37.546Z,257.13
2022-12-18T03:36:10.906Z,241.15
2022-12-18T03:36:44.489Z,267.23
2022-12-18T03:37:17.517Z,281.77
2022-12-18T03:37:50.251Z,262.90
2022-12-18T03:38:23.394Z,278.42
2022-12-18T03:38:58.934Z,270.60
2022-12-18T03:39:33.274Z,278.85
2022-12-18T03:40:06.803Z,260.30
2022-12-18T03:40:43.134Z,291.60
2022-12-18T03:41:33.883Z,267.75
2022-12-18T03:42:33.833Z,271.55
2022-12-18T03:43:18.968Z,269.88
2022-12-18T03:44:01.118Z,249.90
2022-12-18T03:44:38.005Z,255.80
2022-12-18T03:45:20.771Z,280.83
2022-12-18T03:46:02.590Z,242.27
2022-12-18T03:46:42.174Z,241.13
2022-12-18T03:47:17.128Z,249.75
2022-12-18T03:47:50.382Z,256.73
2022-12-18T03:48:44.197Z,274.90
2022-12-18T03:49:55.336Z,251.40
2022-12-18T03:50:37.204Z,261.70
2022-12-18T03:51:12.861Z,267.63
2022-12-18T03:51:51.604Z,258.20
2022-12-18T03:52:39.050Z,250.20
2022-12-18T03:53:16.666Z,247.48
2022-12-18T03:53:56.913Z,254.80
2022-12-18T03:54:35.211Z,250.25
2022-12-18T03:55:14.732Z,257.73
2022-12-18T03:55:49.247Z,253.88
2022-12-18T03:56:23.946Z,266.35
2022-12-18T03:56:59.362Z,269.00
2022-12-18T03:57:33.443Z,267.73
2022-12-18T03:58:08.121Z,259.20
2022-12-18T03:58:55.410Z,234.63
2022-12-18T03:59:31.767Z,256.65
2022-12-18T04:00:09.395Z,257.45
2022-12-18T04:00:58.027Z,262.63
2022-12-18T04:01:36.872Z,261.80
2022-12-18T04:02:10.508Z,260.42
2022-12-18T04:02:48.910Z,250.75
2022-12-18T04:03:29.605Z,272.13
2022-12-18T04:04:03.874Z,258.77
2022-12-18T04:04:40.183Z,269.23
2022-12-18T04:05:13.498Z,270.55
2022-12-18T04:05:49.534Z,278.15
2022-12-18T04:06:23.893Z,263.00
2022-12-18T04:06:58.092Z,245.48
2022-12-18T04:07:30.613Z,258.80
2022-12-18T04:08:04.313Z,251.02
2022-12-18T04:08:41.376Z,248.30
2022-12-18T04:09:16.274Z,254.43
2022-12-18T04:09:53.969Z,261.08
2022-12-18T04:10:28.855Z,266.48
2022-12-18T04:11:03.282Z,251.55
2022-12-18T04:11:35.942Z,258.77
2022-12-18T04:12:10.010Z,274.17
2022-12-18T04:12:42.673Z,261.98
2022-12-18T04:13:29.430Z,274.23
2022-12-18T04:14:07.059Z,259.20
2022-12-18T04:14:39.989Z,268.25
2022-12-18T04:15:14.723Z,275.10
2022-12-18T04:15:49.055Z,258.83
2022-12-18T04:16:21.930Z,264.42
2022-12-18T04:16:57.788Z,276.58
2022-12-18T04:17:35.605Z,262.35
2022-12-18T04:18:08.928Z,268.90
2022-12-18T04:18:47.459Z,266.98
2022-12-18T04:19:20.746Z,268.38
2022-12-18T04:19:55.836Z,275.42
2022-12-18T04:20:30.069Z,250.25
2022-12-18T04:21:03.048Z,255.73
2022-12-18T04:21:35.301Z,252.57
2022-12-18T04:22:07.498Z,255.40
2022-12-18T04:22:45.954Z,270.30
2022-12-18T04:23:19.525Z,259.45
2022-12-18T04:23:52.021Z,246.80
2022-12-18T04:24:26.689Z,254.95
2022-12-18T04:25:14.038Z,257.02
2022-12-18T04:25:57.848Z,248.52
2022-12-18T04:26:45.002Z,251.73
2022-12-18T04:27:23.034Z,239.38
2022-12-18T04:27:56.631Z,251.63
2022-12-18T04:28:28.956Z,246.73
2022-12-18T04:29:01.352Z,235.35
2022-12-18T04:29:34.471Z,249.40
2022-12-18T04:30:07.263Z,248.10
2022-12-18T04:30:39.586Z,261.45
2022-12-18T04:31:11.969Z,258.45
2022-12-18T04:31:44.490Z,257.52
2022-12-18T04:32:17.098Z,264.17
2022-12-18T04:32:52.299Z,242.65
2022-12-18T04:33:25.851Z,266.13
2022-12-18T04:33:58.229Z,261.60
2022-12-18T04:34:30.874Z,254.13
2022-12-18T04:35:05.429Z,247.65
2022-12-18T04:35:38.532Z,260.15
2022-12-18T04:36:11.105Z,266.85
2022-12-18T04:36:43.768Z,253.57
2022-12-18T04:37:16.352Z,252.77
2022-12-18T04:37:48.900Z,268.67
2022-12-18T04:38:21.695Z,257.75
2022-12-18T04:39:00.368Z,263.08
2022-12-18T04:39:32.749Z,278.33
2022-12-18T04:40:11.022Z,255.38
2022-12-18T04:40:47.574Z,263.50
2022-12-18T04:41:26.980Z,252.43
2022-12-18T04:41:59.893Z,252.80
2022-12-18T04:42:32.224Z,270.52
2022-12-18T04:43:05.020Z,264.05
2022-12-18T04:43:37.515Z,276.70
2022-12-18T04:44:10.217Z,266.13
2022-12-18T04:44:42.427Z,271.42
2022-12-18T04:45:14.698Z,263.77
2022-12-18T04:45:47.018Z,254.10
2022-12-18T04:46:19.340Z,276.27
2022-12-18T04:46:51.675Z,266.30
2022-12-18T04:47:24.037Z,269.35
2022-12-18T04:47:58.011Z,260.75
2022-12-18T04:48:31.077Z,262.98
2022-12-18T04:49:03.416Z,267.35
2022-12-18T04:49:35.670Z,264.23
2022-12-18T04:50:08.112Z,267.65
2022-12-18T04:50:40.350Z,254.13
2022-12-18T04:51:13.381Z,265.13
2022-12-18T04:51:45.652Z,256.38
2022-12-18T04:52:17.910Z,256.10
2022-12-18T04:52:50.203Z,257.60
2022-12-18T04:53:22.554Z,275.30
2022-12-18T04:53:54.887Z,269.45
2022-12-18T04:54:27.216Z,263.23
2022-12-18T04:54:59.558Z,242.93
2022-12-18T04:55:31.843Z,254.68
2022-12-18T04:56:07.904Z,247.65
2022-12-18T04:56:40.969Z,254.95
2022-12-18T04:57:13.305Z,264.23
2022-12-18T04:57:46.501Z,260.40
2022-12-18T04:58:18.695Z,267.20
2022-12-18T04:58:50.884Z,273.02
2022-12-18T04:59:23.240Z,263.60
2022-12-18T04:59:56.176Z,258.52
2022-12-18T05:00:28.984Z,262.98
2022-12-18T05:01:01.891Z,267.27
2022-12-18T05:01:35.630Z,261.80
2022-12-18T05:02:09.649Z,260.83
2022-12-18T05:02:42.137Z,268.52
2022-12-18T05:03:14.651Z,270.70
2022-12-18T05:03:47.107Z,273.17
2022-12-18T05:04:19.692Z,263.02
2022-12-18T05:04:52.408Z,267.60
2022-12-18T05:05:24.697Z,261.83
2022-12-18T05:05:57.038Z,261.13
2022-12-18T05:06:29.430Z,268.90
2022-12-18T05:07:01.716Z,279.92
2022-12-18T05:07:34.093Z,252.18
2022-12-18T05:08:06.882Z,264.30
2022-12-18T05:08:39.137Z,256.05
2022-12-18T05:09:11.365Z,250.95
2022-12-18T05:09:43.629Z,271.88
2022-12-18T05:10:15.985Z,262.48
2022-12-18T05:10:48.225Z,263.38
2022-12-18T05:11:20.596Z,260.48
2022-12-18T05:11:52.881Z,261.30
2022-12-18T05:12:25.204Z,269.80
2022-12-18T05:13:01.345Z,249.85
2022-12-18T05:13:34.483Z,255.20
2022-12-18T05:14:06.825Z,249.80
2022-12-18T05:14:39.026Z,268.08
2022-12-18T05:15:11.306Z,263.80
2022-12-18T05:15:43.675Z,262.27
2022-12-18T05:16:16.232Z,240.95
2022-12-18T05:16:48.563Z,251.95
2022-12-18T05:17:20.782Z,252.32
2022-12-18T05:17:53.106Z,262.63
2022-12-18T05:18:25.621Z,277.75
2022-12-18T05:18:57.904Z,239.45
2022-12-18T05:19:30.120Z,250.65
2022-12-18T05:20:02.414Z,251.75
2022-12-18T05:20:34.789Z,253.90
2022-12-18T05:21:07.069Z,261.15
2022-12-18T05:21:39.481Z,253.18
2022-12-18T05:22:12.720Z,255.18
2022-12-18T05:22:45.088Z,257.98
2022-12-18T05:23:17.450Z,259.13
2022-12-18T05:23:49.755Z,251.65
2022-12-18T05:24:22.195Z,251.07
2022-12-18T05:24:54.627Z,244.77
2022-12-18T05:25:27.346Z,253.10
2022-12-18T05:26:03.805Z,255.20
2022-12-18T05:26:36.222Z,248.02
2022-12-18T05:27:08.458Z,250.35
2022-12-18T05:27:40.664Z,247.75
2022-12-18T05:28:12.861Z,252.50
2022-12-18T05:28:45.250Z,254.02
2022-12-18T05:29:17.522Z,257.90
2022-12-18T05:29:49.846Z,257.98
2022-12-18T05:30:22.369Z,242.13
2022-12-18T05:30:58.866Z,246.75
2022-12-18T05:31:35.931Z,262.20
2022-12-18T05:32:11.619Z,264.85
2022-12-18T05:32:44.010Z,241.85
2022-12-18T05:33:16.317Z,234.52
2022-12-18T05:33:48.581Z,255.40
2022-12-18T05:34:20.825Z,250.98
2022-12-18T05:34:53.116Z,261.85
2022-12-18T05:35:25.985Z,246.80
2022-12-18T05:35:59.387Z,263.77
2022-12-18T05:36:31.686Z,253.65
2022-12-18T05:37:04.008Z,245.68
2022-12-18T05:37:42.531Z,254.98
2022-12-18T05:38:15.431Z,253.77
2022-12-18T05:38:47.829Z,258.05
2022-12-18T05:39:20.157Z,257.13
2022-12-18T05:39:52.405Z,247.98
2022-12-18T05:40:24.670Z,249.25
2022-12-18T05:40:57.317Z,237.57
2022-12-18T05:41:29.900Z,242.77
2022-12-18T05:42:02.215Z,249.38
2022-12-18T05:42:34.575Z,237.90
2022-12-18T05:43:06.940Z,231.07
2022-12-18T05:43:40.971Z,265.40
2022-12-18T05:44:13.675Z,253.07
2022-12-18T05:44:46.133Z,258.85
2022-12-18T05:45:18.867Z,255.20
2022-12-18T05:45:51.430Z,257.80
2022-12-18T05:46:23.977Z,259.23
2022-12-18T05:46:56.337Z,250.13
2022-12-18T05:47:30.045Z,251.05
2022-12-18T05:48:02.343Z,258.75
2022-12-18T05:48:34.774Z,249.45
2022-12-18T05:49:07.135Z,262.30
2022-12-18T05:49:39.976Z,243.15
2022-12-18T05:50:12.405Z,251.48
2022-12-18T05:50:46.647Z,241.60
2022-12-18T05:51:20.429Z,252.93
2022-12-18T05:51:52.664Z,250.68
2022-12-18T05:52:25.585Z,252.07
2022-12-18T05:52:57.877Z,254.02
2022-12-18T05:53:30.251Z,248.57
2022-12-18T05:54:02.670Z,246.70
2022-12-18T05:54:34.960Z,251.20
2022-12-18T05:55:07.355Z,261.17
2022-12-18T05:55:40.950Z,258.98
2022-12-18T05:56:16.014Z,255.40
2022-12-18T05:56:48.921Z,244.32
2022-12-18T05:57:21.828Z,244.75
2022-12-18T05:57:54.084Z,259.25
2022-12-18T05:58:26.377Z,268.67
2022-12-18T05:58:58.583Z,275.23
2022-12-18T05:59:31.008Z,258.50
2022-12-18T06:00:04.063Z,250.98
2022-12-18T06:00:45.683Z,250.52
2022-12-18T06:01:19.307Z,241.60
2022-12-18T06:01:51.950Z,254.32
2022-12-18T06:02:24.543Z,243.23
2022-12-18T06:02:57.230Z,250.98
2022-12-18T06:03:33.910Z,248.25
2022-12-18T06:04:06.549Z,252.13
2022-12-18T06:04:39.512Z,250.88
2022-12-18T06:05:12.317Z,249.18
2022-12-18T06:05:45.772Z,275.25
2022-12-18T06:06:19.472Z,261.45
2022-12-18T06:06:51.924Z,238.82
2022-12-18T06:07:24.603Z,250.30
2022-12-18T06:07:57.004Z,232.35
2022-12-18T06:08:29.565Z,261.42
2022-12-18T06:09:02.720Z,255.07
2022-12-18T06:09:34.986Z,261.73
2022-12-18T06:10:07.532Z,259.65
2022-12-18T06:10:40.088Z,246.55
2022-12-18T06:11:12.462Z,236.73
2022-12-18T06:11:44.726Z,257.90
2022-12-18T06:12:17.091Z,274.58
2022-12-18T06:12:49.352Z,249.65
2022-12-18T06:13:22.012Z,267.35
2022-12-18T06:13:58.643Z,271.85
2022-12-18T06:14:31.615Z,270.42
2022-12-18T06:15:04.613Z,246.93
2022-12-18T06:15:40.101Z,227.02
2022-12-18T06:16:12.404Z,226.43
2022-12-18T06:16:44.979Z,267.92
2022-12-18T06:17:17.346Z,242.02
2022-12-18T06:17:53.325Z,238.90
2022-12-18T06:18:25.992Z,241.15
2022-12-18T06:19:01.896Z,256.58
2022-12-18T06:19:34.186Z,256.02
2022-12-18T06:20:08.282Z,258.55
2022-12-18T06:20:42.533Z,260.83
2022-12-18T06:21:14.855Z,273.95
2022-12-18T06:21:47.953Z,260.33
2022-12-18T06:22:21.132Z,244.20
2022-12-18T06:22:53.469Z,246.60
2022-12-18T06:23:25.696Z,251.90
2022-12-18T06:23:58.033Z,278.63
2022-12-18T06:24:30.895Z,258.52
2022-12-18T06:25:03.221Z,257.00
2022-12-18T06:25:38.020Z,261.35
2022-12-18T06:26:11.379Z,267.95
2022-12-18T06:26:43.735Z,253.25
2022-12-18T06:27:16.152Z,259.38
2022-12-18T06:27:48.677Z,263.73
2022-12-18T06:28:21.039Z,263.13
2022-12-18T06:28:53.334Z,249.73
2022-12-18T06:29:25.714Z,259.15
2022-12-18T06:29:57.946Z,250.43
2022-12-18T06:30:30.144Z,255.23
2022-12-18T06:31:04.092Z,253.13
2022-12-18T06:31:36.507Z,245.00
2022-12-18T06:32:08.865Z,262.63
2022-12-18T06:32:41.137Z,222.10
2022-12-18T06:33:13.400Z,252.43
2022-12-18T06:33:46.000Z,263.88
2022-12-18T06:34:18.246Z,283.00
2022-12-18T06:34:50.687Z,279.88
2022-12-18T06:35:23.078Z,278.25
2022-12-18T06:36:00.922Z,262.95
2022-12-18T06:36:33.655Z,288.98
2022-12-18T06:37:05.957Z,254.50
2022-12-18T06:37:38.341Z,263.95
2022-12-18T06:38:10.664Z,268.23
2022-12-18T06:38:44.032Z,262.95
2022-12-18T06:39:16.240Z,249.55
2022-12-18T06:39:48.728Z,249.93
2022-12-18T06:40:21.030Z,254.60
2022-12-18T06:40:53.309Z,263.85
2022-12-18T06:41:25.659Z,263.92
2022-12-18T06:41:57.998Z,245.70
2022-12-18T06:42:30.583Z,251.68
2022-12-18T06:43:02.885Z,259.63
2022-12-18T06:43:35.222Z,277.23
2022-12-18T06:44:07.791Z,247.25
2022-12-18T06:44:40.041Z,258.90
2022-12-18T06:45:12.672Z,265.55
2022-12-18T06:45:45.101Z,273.65
2022-12-18T06:46:17.590Z,274.60
2022-12-18T06:46:49.913Z,287.85
2022-12-18T06:47:22.463Z,259.85
2022-12-18T06:47:54.832Z,262.88
2022-12-18T06:48:27.078Z,247.10
2022-12-18T06:48:59.453Z,256.02
2022-12-18T06:49:31.731Z,260.13
2022-12-18T06:50:04.118Z,263.77
2022-12-18T06:50:36.373Z,259.27
2022-12-18T06:51:08.655Z,260.20
2022-12-18T06:51:41.226Z,265.70
2022-12-18T06:52:13.486Z,285.98
2022-12-18T06:52:45.719Z,266.58
2022-12-18T06:53:18.003Z,252.57
2022-12-18T06:53:50.801Z,266.45
2022-12-18T06:54:23.243Z,263.88
2022-12-18T06:54:56.310Z,246.55
2022-12-18T06:55:28.694Z,245.30
2022-12-18T06:56:11.102Z,261.17
2022-12-18T06:56:43.716Z,255.52
2022-12-18T06:57:16.185Z,255.45
2022-12-18T06:57:48.646Z,262.45
2022-12-18T06:58:21.403Z,270.65
2022-12-18T06:58:53.867Z,254.82
2022-12-18T06:59:26.208Z,254.57
2022-12-18T06:59:59.444Z,279.38
2022-12-18T07:00:31.736Z,272.23
2022-12-18T07:01:04.988Z,261.98
2022-12-18T07:01:37.500Z,256.30
2022-12-18T07:02:12.966Z,272.25
2022-12-18T07:02:45.769Z,251.40
2022-12-18T07:03:18.225Z,258.80
2022-12-18T07:03:55.318Z,266.02
2022-12-18T07:04:31.017Z,264.88
2022-12-18T07:05:10.258Z,267.85
2022-12-18T07:05:43.228Z,274.02
2022-12-18T07:06:16.668Z,270.20
2022-12-18T07:06:48.995Z,259.50
2022-12-18T07:07:21.535Z,271.45
2022-12-18T07:07:53.991Z,268.58
2022-12-18T07:08:26.441Z,273.45
2022-12-18T07:08:58.892Z,271.05
2022-12-18T07:09:31.197Z,284.27
2022-12-18T07:10:03.924Z,252.18
2022-12-18T07:10:46.313Z,267.33
2022-12-18T07:11:19.913Z,257.48
2022-12-18T07:11:52.128Z,248.40
2022-12-18T07:12:24.348Z,267.02
2022-12-18T07:12:57.130Z,283.38
2022-12-18T07:13:29.496Z,264.85
2022-12-18T07:14:01.777Z,267.65
2022-12-18T07:14:34.001Z,245.48
2022-12-18T07:15:06.593Z,248.95
2022-12-18T07:15:38.927Z,266.65
2022-12-18T07:16:18.329Z,239.38
2022-12-18T07:16:54.888Z,268.13
2022-12-18T07:17:27.290Z,263.70
2022-12-18T07:17:59.506Z,263.25